Latest Weather Observations for Edinburgh

IDS60801

Issued at 3:01 pm CST Thursday 1 September 2016 (issued every 30 minutes, with the page automatically refreshed every 10 minutes)

About weather observations | Map of weather stations | Latest weather observations for SA | Other Formats
Station Details ID: 023083 Name: EDINBURGH RAAF Lat: -34.71 Lon: 138.62 Height: 16.54 m
Data from the previous 72 hours. | See also: Recent months at Edinburgh
Date/Time
CST
Temp
°C
App
Temp
°C
Dew
Point
°C
Rel
Hum
%
Delta-T
°C
Wind Press
QNH
hPa
Press
MSL
hPa
Rain since
9am
mm
Dir  Spd
km/h
Gust
km/h
Spd
kts
Gust
kts
01/03:00pm 18.3 16.9 9.6 57 4.6 N 7 11 4 6 1013.2 1013.2 0.0
01/02:30pm 18.8 17.4 9.0 53 5.1 N 6 9 3 5 1013.6 1013.6 0.0
01/02:00pm 17.7 16.1 8.8 56 4.6 N 7 11 4 6 1013.7 1013.7 0.0
01/01:30pm 17.2 14.8 8.6 57 4.4 NNW 11 15 6 8 1013.8 1013.8 0.0
01/01:00pm 17.5 14.3 9.9 61 4.0 N 17 20 9 11 1014.3 1014.3 0.0
01/12:30pm 19.0 16.4 10.8 59 4.4 N 15 26 8 14 1015.1 1015.1 0.0
01/12:00pm 18.2 15.0 10.1 59 4.3 NNE 17 24 9 13 1015.8 1015.8 0.0
01/11:30am 17.8 14.7 10.2 61 4.0 NNE 17 22 9 12 1016.3 1016.3 0.0
01/11:00am 17.6 14.2 10.7 64 3.7 NE 19 24 10 13 1016.6 1016.6 0.0
01/10:30am 16.7 13.3 9.1 61 3.9 NE 17 20 9 11 1016.9 1016.9 0.0
01/10:00am 16.2 12.2 10.5 69 3.0 NE 22 28 12 15 1017.2 1017.2 0.0
01/09:30am 15.5 12.2 10.9 74 2.4 NE 19 22 10 12 1017.5 1017.5 0.0
01/09:00am 14.8 11.7 10.2 74 2.4 NE 17 22 9 12 1017.7 1017.7 0.2
01/08:30am 13.5 12.5 11.0 85 1.3 NE 7 11 4 6 1017.8 1017.8 0.2
01/08:00am 11.7 10.6 10.6 93 0.6 ENE 7 9 4 5 1017.8 1017.8 0.2
01/07:30am 10.3 8.8 9.2 93 0.5 ENE 7 9 4 5 1017.7 1017.7 0.2
01/07:00am 9.5 9.1 8.4 93 0.5 CALM 0 0 0 0 1017.7 1017.7 0.2
01/06:30am 10.7 9.5 9.6 93 0.6 SE 6 9 3 5 1017.2 1017.2 0.2
01/06:00am 10.0 8.4 8.9 93 0.5 N 7 9 4 5 1017.4 1017.4 0.2
01/05:30am 10.3 9.4 9.2 93 0.5 WSW 4 7 2 4 1017.1 1017.1 0.2
01/05:00am 10.6 10.5 9.4 92 0.6 CALM 0 0 0 0 1017.1 1017.1 0.2
01/04:48am 10.7 10.6 9.5 92 0.6 CALM 0 0 0 0 1017.3 1017.3 0.2
01/04:34am 10.6 10.5 9.4 92 0.6 CALM 0 0 0 0 1017.2 1017.2 0.2
01/04:30am 10.4 10.2 9.2 92 0.6 CALM 0 0 0 0 1017.3 1017.3 0.2
01/04:00am 10.3 9.4 9.1 92 0.6 SW 4 6 2 3 1017.4 1017.4 0.2
01/03:30am 11.2 10.8 9.8 91 0.7 E 2 7 1 4 1017.4 1017.4 0.2
01/03:00am 11.5 10.2 10.1 91 0.7 E 7 9 4 5 1017.7 1017.7 0.2
01/02:30am 12.0 11.1 10.6 91 0.7 E 6 7 3 4 1018.1 1018.1 0.2
01/02:00am 12.1 11.6 10.7 91 0.7 E 4 6 2 3 1018.6 1018.6 0.2
01/01:30am 11.6 10.6 10.2 91 0.7 NE 6 7 3 4 1018.9 1018.9 0.2
01/01:00am 11.8 10.8 10.2 90 0.8 NE 6 7 3 4 1019.2 1019.2 0.2
01/12:30am 11.7 10.4 10.1 90 0.8 NE 7 7 4 4 1019.4 1019.4 0.2
01/12:06am 11.9 10.9 10.3 90 0.8 ENE 6 7 3 4 1019.4 1019.4 0.0
01/12:00am 11.8 10.8 10.2 90 0.8 NE 6 7 3 4 1019.5 1019.5 0.0
 
Date/Time
CST
Temp
°C
App
Temp
°C
Dew
Point
°C
Rel
Hum
%
Delta-T
°C
Wind Press
QNH
hPa
Press
MSL
hPa
Rain since
9am
mm
Dir  Spd
km/h
Gust
km/h
Spd
kts
Gust
kts
31/11:56pm 11.7 10.6 10.1 90 0.8 NNE 6 7 3 4 1019.4 1019.4 0.0
31/11:30pm 11.7 11.0 9.9 89 0.9 N 4 7 2 4 1019.4 1019.4 0.0
31/11:00pm 11.9 10.8 10.0 88 1.0 ENE 6 6 3 3 1019.2 1019.2 0.0
31/10:30pm 11.8 11.1 10.0 89 0.9 ENE 4 7 2 4 1019.3 1019.3 0.0
31/10:00pm 11.8 10.6 10.2 90 0.8 ENE 7 11 4 6 1019.4 1019.4 0.0
31/09:30pm 11.3 10.0 9.9 91 0.7 NE 7 9 4 5 1019.4 1019.4 0.0
31/09:00pm 10.9 9.5 9.5 91 0.7 NE 7 9 4 5 1019.5 1019.5 0.0
31/08:30pm 9.7 7.9 8.0 89 0.8 NE 7 9 4 5 1019.4 1019.4 0.0
31/08:00pm 10.8 9.5 9.1 89 0.8 NE 6 6 3 3 1019.1 1019.1 0.0
31/07:30pm 9.5 7.6 7.6 88 0.9 NNW 7 9 4 5 1018.9 1018.9 0.0
31/07:00pm 11.5 11.4 9.4 87 1.1 CALM 0 0 0 0 1018.4 1018.4 0.0
31/06:30pm 11.8 11.3 9.4 85 1.2 WSW 2 6 1 3 1018.2 1018.2 0.0
31/06:00pm 12.4 10.6 9.6 83 1.4 WSW 9 15 5 8 1018.2 1018.2 0.0
31/05:30pm 14.1 10.9 9.9 76 2.2 WSW 17 19 9 10 1017.8 1017.8 0.0
31/05:00pm 14.8 11.6 9.8 72 2.6 WSW 17 20 9 11 1017.6 1017.6 0.0
31/04:30pm 15.3 11.8 10.3 72 2.6 WSW 19 24 10 13 1017.4 1017.4 0.0
31/04:00pm 15.7 12.4 10.9 73 2.6 WSW 19 24 10 13 1017.4 1017.4 0.0
31/03:30pm 15.9 11.7 9.6 66 3.3 W 22 30 12 16 1017.4 1017.4 0.0
31/03:00pm 16.5 11.6 9.9 65 3.5 W 26 30 14 16 1017.4 1017.4 0.0
31/02:30pm 16.4 11.5 10.0 66 3.4 WNW 26 32 14 17 1017.4 1017.4 0.0
31/02:00pm 16.6 11.5 10.7 68 3.1 WNW 28 35 15 19 1017.3 1017.3 0.0
31/01:30pm 16.9 12.0 11.2 69 3.1 WNW 28 35 15 19 1017.5 1017.5 0.0
31/01:00pm 16.7 12.6 11.4 71 2.9 WNW 24 32 13 17 1017.9 1017.9 0.0
31/12:30pm 16.8 13.9 12.9 78 2.2 WNW 20 26 11 14 1018.2 1018.2 0.0
31/12:00pm 16.2 12.1 11.6 74 2.5 NW 24 32 13 17 1018.6 1018.6 0.0
31/11:30am 15.7 12.1 11.7 77 2.2 WNW 22 28 12 15 1018.7 1018.7 0.0
31/11:00am 15.3 12.1 11.3 77 2.1 NW 19 26 10 14 1018.8 1018.8 0.0
31/10:30am 14.7 11.3 11.1 79 1.9 WNW 20 26 11 14 1018.9 1018.9 0.0
31/10:00am 14.3 10.1 11.1 81 1.7 WNW 24 32 13 17 1018.9 1018.9 0.0
31/09:30am 14.0 9.8 11.2 83 1.5 WNW 24 30 13 16 1018.9 1018.9 0.0
31/09:00am 14.0 11.8 12.2 89 1.0 NW 15 22 8 12 1018.7 1018.7 1.2
31/08:30am 12.4 10.3 11.3 93 0.6 NNW 13 19 7 10 1018.5 1018.5 1.2
31/08:00am 10.9 8.5 10.0 94 0.5 NNW 13 15 7 8 1018.2 1018.2 1.2
31/07:34am 9.9 7.6 9.0 94 0.4 N 11 11 6 6 1017.8 1017.8 1.2
31/07:30am 9.9 7.6 9.0 94 0.4 NNW 11 11 6 6 1017.8 1017.8 1.2
31/07:23am 9.6 7.2 8.7 94 0.4 NNW 11 15 6 8 1017.7 1017.7 1.2
31/07:00am 9.3 6.8 8.4 94 0.4 N 11 15 6 8 1017.5 1017.5 1.0
31/06:30am 9.2 6.7 8.1 93 0.5 N 11 13 6 7 1017.0 1017.0 1.0
31/06:00am 10.3 8.5 9.4 94 0.4 N 9 11 5 6 1016.6 1016.6 1.0
31/05:53am 10.3 8.5 9.4 94 0.4 N 9 11 5 6 1016.5 1016.5 1.0
31/05:35am 9.7 7.7 8.6 93 0.5 NNW 9 9 5 5 1016.3 1016.3 1.0
31/05:30am 9.7 7.7 8.6 93 0.5 NNW 9 9 5 5 1016.2 1016.2 1.0
31/05:07am 9.7 7.7 8.6 93 0.5 NNW 9 11 5 6 1015.9 1015.9 1.0
31/05:00am 9.9 7.9 8.8 93 0.5 NNW 9 9 5 5 1015.9 1015.9 1.0
31/04:30am 10.7 8.6 9.6 93 0.6 NNW 11 13 6 7 1015.7 1015.7 1.0
31/04:00am 11.4 9.1 10.3 93 0.6 NW 13 19 7 10 1015.6 1015.6 1.0
31/03:30am 11.2 8.4 10.1 93 0.6 NNW 15 19 8 10 1015.4 1015.4 0.8
31/03:14am 11.1 8.7 10.0 93 0.6 NNW 13 17 7 9 1015.3 1015.3 0.8
31/03:00am 11.1 8.3 10.0 93 0.6 NNW 15 19 8 10 1015.3 1015.3 0.8
31/02:30am 10.9 8.8 9.8 93 0.6 N 11 13 6 7 1015.2 1015.2 0.8
31/02:00am 10.6 8.8 9.5 93 0.6 N 9 13 5 7 1015.2 1015.2 0.8
31/01:30am 10.0 7.7 8.9 93 0.5 NE 11 13 6 7 1015.3 1015.3 0.8
31/01:16am 9.5 7.0 8.3 92 0.6 NE 11 13 6 7 1015.3 1015.3 0.8
31/01:00am 9.8 7.4 8.6 92 0.6 ENE 11 13 6 7 1015.2 1015.2 0.8
31/12:30am 9.6 7.5 8.4 92 0.6 NE 9 11 5 6 1014.9 1014.9 0.8
31/12:00am 9.4 6.9 8.2 92 0.6 NW 11 13 6 7 1014.6 1014.6 0.8
 
Date/Time
CST
Temp
°C
App
Temp
°C
Dew
Point
°C
Rel
Hum
%
Delta-T
°C
Wind Press
QNH
hPa
Press
MSL
hPa
Rain since
9am
mm
Dir  Spd
km/h
Gust
km/h
Spd
kts
Gust
kts
30/11:30pm 9.7 6.9 8.5 92 0.6 NW 13 13 7 7 1014.6 1014.6 0.8
30/11:00pm 10.1 8.5 8.7 91 0.7 NNW 7 11 4 6 1014.3 1014.3 0.8
30/10:30pm 10.6 8.4 9.2 91 0.7 N 11 13 6 7 1014.5 1014.5 0.8
30/10:00pm 10.7 8.8 9.0 89 0.8 N 9 11 5 6 1014.6 1014.6 0.8
30/09:30pm 11.7 10.4 9.9 89 0.9 N 7 11 4 6 1014.4 1014.4 0.8
30/09:00pm 12.2 10.9 10.1 87 1.1 N 7 11 4 6 1014.1 1014.1 0.8
30/08:30pm 12.8 11.4 10.9 88 1.0 N 9 15 5 8 1013.7 1013.7 0.8
30/08:00pm 13.0 10.5 10.9 87 1.1 N 15 19 8 10 1013.4 1013.4 0.8
30/07:30pm 12.7 10.9 10.8 88 1.0 N 11 13 6 7 1013.0 1013.0 0.8
30/07:00pm 12.1 10.1 10.2 88 1.0 NNE 11 13 6 7 1012.5 1012.5 0.8
30/06:30pm 13.0 10.7 10.5 85 1.3 NNE 13 17 7 9 1011.9 1011.9 0.8
30/06:00pm 14.2 12.1 11.2 82 1.6 NE 13 15 7 8 1011.3 1011.3 0.8
30/05:30pm 14.7 11.8 11.1 79 1.9 N 17 22 9 12 1010.9 1010.9 0.8
30/05:00pm 14.4 8.5 11.0 80 1.8 NW 33 46 18 25 1011.0 1011.0 0.6
30/04:46pm 16.7 13.7 13.8 83 1.6 NNW 22 41 12 22 1010.7 1010.7 0.4
30/04:30pm 17.2 16.2 13.5 79 2.1 NW 11 15 6 8 1010.4 1010.4 0.0
30/04:00pm 17.8 16.0 13.3 75 2.5 NW 15 19 8 10 1010.3 1010.3 0.0
30/03:30pm 18.4 15.7 12.8 70 3.1 NW 19 24 10 13 1010.1 1010.1 0.0
30/03:00pm 18.8 15.8 13.6 72 3.0 NW 22 30 12 16 1010.5 1010.5 0.0
30/02:30pm 19.5 17.4 15.2 76 2.5 WNW 20 30 11 16 1010.7 1010.7 0.0
30/02:00pm 19.1 17.5 13.9 72 3.0 NW 15 20 8 11 1010.7 1010.7 0.0
30/01:30pm 19.3 17.4 14.1 72 3.0 NNW 17 30 9 16 1010.9 1010.9 0.0
30/01:00pm 18.2 16.5 13.7 75 2.6 NW 15 22 8 12 1011.2 1011.2 0.0
30/12:30pm 18.8 15.5 14.1 74 2.7 NNW 24 32 13 17 1011.8 1011.8 0.0
30/12:00pm 17.8 14.7 13.5 76 2.4 N 22 30 12 16 1011.9 1011.9 0.0
30/11:30am 17.2 15.3 14.3 83 1.7 NNW 17 22 9 12 1012.1 1012.1 0.0
30/11:28am 17.0 15.1 14.1 83 1.7 NNW 17 22 9 12 1012.1 1012.1 0.0
30/11:00am 16.3 13.6 13.6 84 1.5 NNW 20 26 11 14 1012.4 1012.4 0.0
30/10:30am 16.1 14.6 14.1 88 1.1 N 15 20 8 11 1012.2 1012.2 0.0
30/10:00am 14.9 13.2 13.6 92 0.7 N 15 19 8 10 1012.6 1012.6 0.0
30/09:30am 14.3 12.1 13.2 93 0.6 NNE 17 24 9 13 1012.8 1012.8 0.0
30/09:00am 13.7 12.1 12.8 94 0.5 NNE 13 19 7 10 1012.9 1012.9 8.6
30/08:30am 13.1 11.6 12.0 93 0.6 NNE 11 15 6 8 1013.1 1013.1 8.2
30/08:00am 12.9 11.4 11.8 93 0.6 NE 11 13 6 7 1013.0 1013.0 8.0
30/07:48am 12.8 11.2 11.7 93 0.6 NE 11 15 6 8 1012.9 1012.9 7.6
30/07:32am 12.7 10.7 11.6 93 0.6 NE 13 15 7 8 1012.6 1012.6 7.4
30/07:30am 12.7 10.7 11.6 93 0.6 NE 13 15 7 8 1012.6 1012.6 7.2
30/07:27am 12.7 10.7 11.6 93 0.6 NE 13 15 7 8 1012.5 1012.5 7.0
30/07:00am 12.6 10.6 11.5 93 0.6 NE 13 15 7 8 1012.4 1012.4 5.6
30/06:30am 12.6 10.2 11.3 92 0.7 NE 15 20 8 11 1012.2 1012.2 4.6
30/06:10am 12.6 9.4 11.2 91 0.7 NE 19 22 10 12 1012.2 1012.2 4.4
30/06:00am 12.6 9.4 11.2 91 0.7 NE 19 24 10 13 1012.2 1012.2 4.4
30/05:46am 12.7 9.9 11.3 91 0.7 NE 17 24 9 13 1012.1 1012.1 4.4
30/05:30am 12.7 9.9 11.3 91 0.7 NE 17 20 9 11 1012.0 1012.0 4.2
30/05:00am 12.6 9.4 11.3 92 0.7 NE 19 24 10 13 1011.7 1011.7 4.2
30/04:41am 12.5 9.3 11.2 92 0.7 ENE 19 24 10 13 1011.9 1011.9 4.2
30/04:30am 12.4 9.5 11.1 92 0.7 NE 17 22 9 12 1012.1 1012.1 4.2
30/04:27am 12.3 9.4 11.0 92 0.7 NE 17 22 9 12 1012.2 1012.2 4.2
30/04:11am 12.3 9.0 11.0 92 0.7 NE 19 24 10 13 1012.6 1012.6 4.2
30/04:00am 12.3 9.4 11.0 92 0.7 NE 17 20 9 11 1012.6 1012.6 4.0
30/03:59am 12.3 9.4 11.0 92 0.7 NE 17 20 9 11 1012.6 1012.6 4.0
30/03:30am 12.3 9.4 10.9 91 0.7 NNE 17 24 9 13 1012.9 1012.9 3.8
30/03:23am 12.3 9.0 10.9 91 0.7 NE 19 24 10 13 1012.8 1012.8 3.6
30/03:00am 12.4 8.9 10.8 90 0.8 NE 20 28 11 15 1012.8 1012.8 2.6
30/02:50am 12.5 8.6 10.7 89 0.9 NE 22 28 12 15 1013.0 1013.0 2.2
30/02:47am 12.5 8.6 10.7 89 0.9 NE 22 28 12 15 1013.0 1013.0 2.0
30/02:30am 12.7 8.4 10.8 88 1.0 NE 24 30 13 16 1013.1 1013.1 2.0
30/02:27am 12.7 8.4 10.8 88 1.0 NE 24 30 13 16 1013.1 1013.1 2.0
30/02:00am 13.3 10.2 10.3 82 1.6 NE 17 24 9 13 1013.7 1013.7 1.2
30/01:30am 13.9 9.7 9.9 77 2.1 NE 22 30 12 16 1013.8 1013.8 1.0
30/01:00am 14.5 11.4 10.3 76 2.2 NE 17 19 9 10 1013.0 1013.0 1.0
30/12:30am 14.6 11.0 10.0 74 2.4 NNE 19 22 10 12 1013.5 1013.5 1.0
30/12:00am 14.9 11.4 10.3 74 2.4 NNE 19 30 10 16 1013.8 1013.8 1.0
 
Date/Time
CST
Temp
°C
App
Temp
°C
Dew
Point
°C
Rel
Hum
%
Delta-T
°C
Wind Press
QNH
hPa
Press
MSL
hPa
Rain since
9am
mm
Dir  Spd
km/h
Gust
km/h
Spd
kts
Gust
kts
29/11:30pm 14.0 11.2 10.0 77 2.1 NNE 15 17 8 9 1013.4 1013.4 1.0
29/11:00pm 14.4 9.1 9.8 74 2.4 NE 28 37 15 20 1013.2 1013.2 1.0
29/10:30pm 14.7 8.6 9.9 73 2.5 NE 32 41 17 22 1013.4 1013.4 1.0
29/10:00pm 14.9 8.2 9.7 71 2.7 NE 35 46 19 25 1013.2 1013.2 1.0
29/09:30pm 15.0 7.2 9.8 71 2.7 NE 41 50 22 27 1012.9 1012.9 1.0
29/09:00pm 14.8 8.8 10.2 74 2.4 NE 32 46 17 25 1012.4 1012.4 1.0
29/08:30pm 14.5 9.3 10.3 76 2.2 NE 28 37 15 20 1012.6 1012.6 1.0
29/08:00pm 14.6 9.1 10.4 76 2.2 NE 30 41 16 22 1013.1 1013.1 1.0
29/07:30pm 14.6 8.5 10.4 76 2.2 NE 33 43 18 23 1013.2 1013.2 1.0
29/07:00pm 14.5 9.3 10.3 76 2.2 NE 28 37 15 20 1013.3 1013.3 1.0
29/06:30pm 14.9 10.5 10.3 74 2.4 NE 24 32 13 17 1013.2 1013.2 1.0
29/06:00pm 14.7 9.6 10.5 76 2.2 NE 28 33 15 18 1012.7 1012.7 1.0
29/05:30pm 14.1 8.5 10.3 78 2.0 ENE 30 37 16 20 1012.7 1012.7 0.8
29/05:00pm 14.5 8.8 9.9 74 2.4 NE 30 37 16 20 1012.7 1012.7 0.4
29/04:30pm 15.4 9.2 9.5 68 3.1 NE 32 43 17 23 1011.8 1011.8 0.2
29/04:00pm 16.0 10.3 9.7 66 3.3 NE 30 41 16 22 1011.7 1011.7 0.2
29/03:30pm 17.5 11.1 8.4 55 4.7 NE 32 43 17 23 1011.5 1011.5 0.0

Other Formats:

Comma delimited format used in spreadsheet applications
http://www.bom.gov.au/fwo/IDS60801/IDS60801.95676.axf

JavaScript Object Notation format (JSON) in row-major order
http://www.bom.gov.au/fwo/IDS60801/IDS60801.95676.json